createdAt,value
2022-08-17T00:01:32.730Z,10.13
2022-08-17T00:04:19.055Z,10.13
2022-08-17T00:06:46.054Z,10.15
2022-08-17T00:09:18.755Z,11.25
2022-08-17T00:12:34.982Z,10.38
2022-08-17T00:14:35.050Z,10.75
2022-08-17T00:17:03.936Z,10.63
2022-08-17T00:19:32.713Z,11.93
2022-08-17T00:22:32.437Z,11.30
2022-08-17T00:28:33.304Z,12.07
2022-08-17T00:31:00.975Z,12.80
2022-08-17T00:33:31.112Z,12.35
2022-08-17T00:35:58.998Z,13.40
2022-08-17T00:38:26.854Z,12.88
2022-08-17T00:41:06.831Z,12.27
2022-08-17T00:43:40.885Z,12.13
2022-08-17T00:46:14.496Z,12.75
2022-08-17T00:48:42.315Z,13.27
2022-08-17T00:51:46.584Z,12.50
2022-08-17T00:54:18.671Z,12.98
2022-08-17T00:56:53.920Z,12.82
2022-08-17T00:59:23.165Z,13.05
2022-08-17T01:01:50.807Z,12.55
2022-08-17T01:04:20.123Z,13.20
2022-08-17T01:06:49.415Z,12.70
2022-08-17T01:09:17.846Z,11.73
2022-08-17T01:11:46.270Z,12.82
2022-08-17T01:14:13.305Z,11.98
2022-08-17T01:16:39.906Z,11.60
2022-08-17T01:19:20.242Z,10.98
2022-08-17T01:22:01.064Z,11.68
2022-08-17T01:24:27.790Z,11.15
2022-08-17T01:26:54.209Z,11.50
2022-08-17T01:29:24.802Z,11.10
2022-08-17T01:31:56.337Z,10.80
2022-08-17T01:34:25.066Z,10.68
2022-08-17T01:37:11.095Z,10.40
2022-08-17T01:39:43.577Z,10.00
2022-08-17T01:42:43.164Z,9.55
2022-08-17T01:45:15.101Z,9.48
2022-08-17T01:47:41.755Z,10.00
2022-08-17T01:50:11.745Z,10.88
2022-08-17T01:52:39.322Z,9.70
2022-08-17T01:55:07.268Z,10.35
2022-08-17T01:57:34.315Z,10.25
2022-08-17T02:00:01.207Z,9.93
2022-08-17T02:02:31.385Z,9.25
2022-08-17T02:04:58.291Z,10.30
2022-08-17T02:07:27.143Z,9.65
2022-08-17T02:09:54.037Z,10.02
2022-08-17T02:12:38.043Z,9.57
2022-08-17T02:15:09.263Z,8.68
2022-08-17T02:17:35.861Z,9.50
2022-08-17T02:20:02.297Z,9.32
2022-08-17T02:22:29.025Z,9.27
2022-08-17T02:25:00.889Z,8.65
2022-08-17T02:27:29.292Z,9.43
2022-08-17T02:29:55.778Z,9.60
2022-08-17T02:32:27.857Z,9.65
2022-08-17T02:34:56.401Z,10.23
2022-08-17T02:37:23.034Z,9.70
2022-08-17T02:39:49.542Z,9.77
2022-08-17T02:42:16.024Z,9.35
2022-08-17T02:44:42.509Z,9.95
2022-08-17T02:47:10.486Z,9.85
2022-08-17T02:49:37.392Z,9.75
2022-08-17T02:52:06.581Z,10.05
2022-08-17T02:54:39.638Z,9.93
2022-08-17T02:57:09.594Z,9.35
2022-08-17T02:59:36.117Z,9.57
2022-08-17T03:02:04.563Z,8.48
2022-08-17T03:04:31.214Z,9.63
2022-08-17T03:07:02.277Z,10.02
2022-08-17T03:09:28.922Z,8.55
2022-08-17T03:11:56.114Z,9.13
2022-08-17T03:14:26.160Z,8.57
2022-08-17T03:16:53.727Z,9.65
2022-08-17T03:19:20.900Z,9.25
2022-08-17T03:21:47.337Z,8.98
2022-08-17T03:24:21.849Z,10.38
2022-08-17T03:26:55.268Z,9.95
2022-08-17T03:29:21.788Z,9.65
2022-08-17T03:31:49.432Z,10.07
2022-08-17T03:34:17.336Z,9.63
2022-08-17T03:36:44.566Z,9.38
2022-08-17T03:39:11.047Z,9.48
2022-08-17T03:41:39.111Z,9.77
2022-08-17T03:44:05.625Z,9.10
2022-08-17T03:46:50.785Z,9.43
2022-08-17T03:49:35.736Z,9.82
2022-08-17T03:52:20.558Z,9.45
2022-08-17T03:55:22.238Z,9.30
2022-08-17T03:58:02.601Z,8.70
2022-08-17T04:00:29.133Z,9.40
2022-08-17T04:02:55.655Z,8.85
2022-08-17T04:05:22.083Z,9.23
2022-08-17T04:07:48.560Z,8.85
2022-08-17T04:10:15.117Z,9.00
2022-08-17T04:12:48.565Z,9.02
2022-08-17T04:15:15.881Z,8.45
2022-08-17T04:17:44.223Z,8.65
2022-08-17T04:20:12.835Z,8.25
2022-08-17T04:22:39.381Z,9.25
2022-08-17T04:25:13.794Z,9.60
2022-08-17T04:27:40.263Z,9.60
2022-08-17T04:30:07.445Z,8.63
2022-08-17T04:33:05.446Z,8.68
2022-08-17T04:35:38.797Z,9.20
2022-08-17T04:38:07.176Z,9.82
2022-08-17T04:40:52.743Z,8.73
2022-08-17T04:43:22.153Z,9.10
2022-08-17T04:45:56.648Z,8.02
2022-08-17T04:48:35.456Z,8.23
2022-08-17T04:51:10.074Z,8.05
2022-08-17T04:53:38.664Z,7.88
2022-08-17T04:56:05.619Z,8.25
2022-08-17T04:58:32.238Z,9.20
2022-08-17T05:00:59.015Z,8.65
2022-08-17T05:03:25.968Z,8.48
2022-08-17T05:05:52.488Z,7.97
2022-08-17T05:08:20.242Z,8.23
2022-08-17T05:10:47.489Z,7.50
2022-08-17T05:13:17.463Z,7.50
2022-08-17T05:15:47.627Z,8.38
2022-08-17T05:18:15.540Z,8.20
2022-08-17T05:20:43.620Z,7.82
2022-08-17T05:23:14.705Z,8.00
2022-08-17T05:25:47.410Z,7.32
2022-08-17T05:28:16.028Z,7.75
2022-08-17T05:30:43.936Z,6.88
2022-08-17T05:33:13.261Z,7.38
2022-08-17T05:35:44.010Z,7.50
2022-08-17T05:38:10.743Z,7.65
2022-08-17T05:40:38.298Z,6.97
2022-08-17T05:43:25.506Z,7.43
2022-08-17T05:46:16.095Z,7.97
2022-08-17T05:48:51.978Z,7.63
2022-08-17T05:54:24.926Z,9.30
2022-08-17T05:57:28.991Z,8.57
2022-08-17T06:00:10.915Z,7.68
2022-08-17T06:02:54.285Z,8.30
2022-08-17T06:05:39.081Z,7.72
2022-08-17T06:08:23.313Z,9.40
2022-08-17T06:11:28.243Z,8.55
2022-08-17T06:14:27.734Z,8.05
2022-08-17T06:17:00.644Z,7.88
2022-08-17T06:19:51.988Z,7.47
2022-08-17T06:22:22.238Z,7.53
2022-08-17T06:24:56.741Z,6.03
2022-08-17T06:27:32.062Z,5.80
2022-08-17T06:30:13.438Z,5.72
2022-08-17T06:32:43.699Z,5.10
2022-08-17T06:35:17.655Z,5.18
2022-08-17T06:38:38.074Z,5.00
2022-08-17T06:41:20.115Z,4.93
2022-08-17T06:44:06.135Z,5.20
2022-08-17T06:46:48.653Z,4.93
2022-08-17T06:49:21.890Z,4.72
2022-08-17T06:52:07.495Z,4.30
2022-08-17T06:54:48.948Z,4.25
2022-08-17T06:57:19.568Z,4.45
2022-08-17T06:59:55.829Z,3.97
2022-08-17T07:02:51.349Z,4.10
2022-08-17T07:08:02.857Z,3.22
2022-08-17T07:10:38.054Z,3.95
2022-08-17T07:13:51.155Z,3.92
2022-08-17T07:16:26.319Z,3.72
2022-08-17T07:18:54.779Z,3.90
2022-08-17T07:21:42.419Z,3.88
2022-08-17T07:24:29.662Z,3.90
2022-08-17T07:27:10.866Z,3.47
2022-08-17T07:29:50.492Z,3.45
2022-08-17T07:32:22.905Z,3.28
2022-08-17T07:35:37.968Z,3.08
2022-08-17T07:38:28.762Z,3.20
2022-08-17T07:41:01.844Z,3.15
2022-08-17T07:43:46.282Z,3.20
2022-08-17T07:46:53.821Z,2.65
2022-08-17T07:49:34.137Z,2.83
2022-08-17T07:52:47.682Z,3.00
2022-08-17T07:54:58.030Z,3.25
2022-08-17T07:57:36.161Z,3.30
2022-08-17T08:00:03.046Z,3.05
2022-08-17T08:02:41.329Z,2.90
2022-08-17T08:05:30.696Z,2.90
2022-08-17T08:08:26.290Z,3.60
2022-08-17T08:11:07.124Z,3.10
2022-08-17T08:13:35.333Z,2.90
2022-08-17T08:16:27.539Z,2.80
2022-08-17T08:19:00.089Z,2.80
2022-08-17T08:21:51.293Z,3.28
2022-08-17T08:24:52.196Z,2.78
2022-08-17T08:27:55.294Z,3.28
2022-08-17T08:30:22.359Z,3.10
2022-08-17T08:33:20.613Z,3.20
2022-08-17T08:35:55.315Z,3.10
2022-08-17T08:38:34.422Z,3.33
2022-08-17T08:41:05.563Z,3.10
2022-08-17T08:43:52.781Z,2.95
2022-08-17T08:46:59.938Z,2.90
2022-08-17T08:50:03.259Z,2.85
2022-08-17T08:52:48.150Z,3.00
2022-08-17T08:55:20.665Z,2.50
2022-08-17T08:57:57.071Z,3.05
2022-08-17T09:00:26.181Z,2.95
2022-08-17T09:03:08.409Z,2.85
2022-08-17T09:05:48.435Z,3.03
2022-08-17T09:08:35.394Z,3.08
2022-08-17T09:11:09.358Z,2.90
2022-08-17T09:13:54.209Z,2.63
2022-08-17T09:17:00.665Z,3.05
2022-08-17T09:19:49.054Z,3.00
2022-08-17T09:22:31.439Z,2.30
2022-08-17T09:25:17.441Z,2.17
2022-08-17T09:27:50.283Z,2.72
2022-08-17T09:30:18.284Z,2.45
2022-08-17T09:32:52.058Z,2.50
2022-08-17T09:35:32.958Z,2.25
2022-08-17T09:38:33.726Z,2.30
2022-08-17T09:41:23.758Z,2.35
2022-08-17T09:44:02.404Z,2.60
2022-08-17T09:46:43.769Z,2.45
2022-08-17T09:49:27.010Z,1.95
2022-08-17T09:52:13.779Z,2.33
2022-08-17T09:54:41.516Z,2.40
2022-08-17T09:57:29.369Z,2.70
2022-08-17T10:00:11.450Z,2.35
2022-08-17T10:03:00.441Z,2.03
2022-08-17T10:05:51.253Z,2.20
2022-08-17T10:08:29.360Z,1.75
2022-08-17T10:11:08.062Z,2.08
2022-08-17T10:13:37.949Z,2.10
2022-08-17T10:16:20.525Z,2.17
2022-08-17T10:19:03.412Z,2.30
2022-08-17T10:21:51.027Z,2.00
2022-08-17T10:25:20.975Z,2.10
2022-08-17T10:27:55.197Z,2.05
2022-08-17T10:30:24.988Z,2.08
2022-08-17T10:33:05.167Z,2.13
2022-08-17T10:35:46.815Z,2.10
2022-08-17T10:38:21.518Z,1.90
2022-08-17T10:41:06.525Z,2.35
2022-08-17T10:44:39.095Z,1.85
2022-08-17T10:46:59.532Z,1.73
2022-08-17T10:49:29.553Z,1.92
2022-08-17T10:51:59.015Z,1.90
2022-08-17T10:54:25.378Z,2.25
2022-08-17T10:56:53.998Z,1.88
2022-08-17T10:59:48.605Z,2.28
2022-08-17T11:02:19.704Z,2.10
2022-08-17T11:04:49.963Z,1.95
2022-08-17T11:07:34.936Z,1.80
2022-08-17T11:10:10.650Z,1.97
2022-08-17T11:12:45.345Z,2.05
2022-08-17T11:15:24.600Z,1.85
2022-08-17T11:17:58.142Z,1.95
2022-08-17T11:20:46.458Z,2.05
2022-08-17T11:23:34.375Z,1.85
2022-08-17T11:26:08.213Z,1.92
2022-08-17T11:28:48.759Z,1.70
2022-08-17T11:31:38.593Z,1.75
2022-08-17T11:34:18.764Z,1.63
2022-08-17T11:37:04.029Z,1.77
2022-08-17T11:39:36.816Z,2.00
2022-08-17T11:42:19.883Z,1.92
2022-08-17T11:45:32.397Z,1.70
2022-08-17T11:48:41.805Z,2.08
2022-08-17T11:51:30.334Z,1.52
2022-08-17T11:54:31.138Z,1.90
2022-08-17T11:56:52.875Z,1.48
2022-08-17T11:59:39.448Z,1.70
2022-08-17T12:02:31.761Z,1.90
2022-08-17T12:05:27.422Z,1.90
2022-08-17T12:08:05.550Z,1.67
2022-08-17T12:10:35.556Z,1.70
2022-08-17T12:13:21.738Z,1.67
2022-08-17T12:15:52.698Z,1.95
2022-08-17T12:18:25.847Z,1.80
2022-08-17T12:21:15.905Z,1.98
2022-08-17T12:24:15.927Z,1.70
2022-08-17T12:26:44.090Z,1.80
2022-08-17T12:29:18.211Z,1.75
2022-08-17T12:32:06.954Z,2.17
2022-08-17T12:34:38.282Z,1.60
2022-08-17T12:37:08.066Z,1.95
2022-08-17T12:39:34.905Z,2.38
2022-08-17T12:42:02.762Z,1.80
2022-08-17T12:44:33.663Z,2.88
2022-08-17T12:47:22.622Z,2.20
2022-08-17T12:49:52.374Z,1.67
2022-08-17T12:52:32.857Z,1.70
2022-08-17T12:55:01.959Z,1.50
2022-08-17T12:57:49.047Z,1.63
2022-08-17T13:00:21.911Z,1.65
2022-08-17T13:03:12.993Z,1.70
2022-08-17T13:06:06.230Z,1.60
2022-08-17T13:08:43.118Z,1.70
2022-08-17T13:11:20.337Z,1.42
2022-08-17T13:13:52.427Z,1.60
2022-08-17T13:16:31.907Z,1.45
2022-08-17T13:19:08.895Z,1.60
2022-08-17T13:21:37.620Z,1.45
2022-08-17T13:24:14.702Z,1.40
2022-08-17T13:26:45.882Z,1.55
2022-08-17T13:29:38.882Z,1.40
2022-08-17T13:32:07.996Z,1.35
2022-08-17T13:35:01.652Z,1.50
2022-08-17T13:37:32.986Z,1.33
2022-08-17T13:39:59.503Z,1.52
2022-08-17T13:42:50.585Z,1.30
2022-08-17T13:45:36.022Z,1.60
2022-08-17T13:48:08.906Z,1.40
2022-08-17T13:50:55.494Z,1.38
2022-08-17T13:53:53.259Z,1.40
2022-08-17T13:56:39.658Z,1.40
2022-08-17T13:59:11.256Z,1.40
2022-08-17T14:01:53.413Z,1.38
2022-08-17T14:04:27.832Z,1.58
2022-08-17T14:07:02.984Z,1.98
2022-08-17T14:09:37.471Z,1.55
2022-08-17T14:12:10.587Z,1.73
2022-08-17T14:14:38.128Z,1.60
2022-08-17T14:17:05.492Z,1.60
2022-08-17T14:19:34.766Z,1.90
2022-08-17T14:22:01.878Z,1.90
2022-08-17T14:24:44.743Z,1.98
2022-08-17T14:27:18.382Z,1.88
2022-08-17T14:29:45.070Z,1.98
2022-08-17T14:32:18.433Z,2.10
2022-08-17T14:34:46.150Z,2.50
2022-08-17T14:37:13.003Z,2.40
2022-08-17T14:39:39.784Z,2.25
2022-08-17T14:42:06.577Z,2.30
2022-08-17T14:44:33.114Z,2.40
2022-08-17T14:46:59.573Z,1.85
2022-08-17T14:49:26.242Z,2.08
2022-08-17T14:51:52.938Z,1.95
2022-08-17T14:54:32.699Z,2.20
2022-08-17T14:57:00.950Z,2.15
2022-08-17T14:59:48.879Z,2.20
2022-08-17T15:02:30.115Z,2.10
2022-08-17T15:07:32.197Z,2.10
2022-08-17T15:10:01.515Z,1.80
2022-08-17T15:12:32.846Z,2.10
2022-08-17T15:15:01.137Z,2.38
2022-08-17T15:17:54.739Z,2.25
2022-08-17T15:20:18.420Z,2.20
2022-08-17T15:22:46.895Z,2.20
2022-08-17T15:25:14.662Z,2.30
2022-08-17T15:27:41.917Z,2.00
2022-08-17T15:30:10.039Z,2.20
2022-08-17T15:32:39.638Z,2.20
2022-08-17T15:35:08.789Z,2.10
2022-08-17T15:37:36.348Z,2.13
2022-08-17T15:40:04.171Z,2.38
2022-08-17T15:42:30.802Z,2.08
2022-08-17T15:44:57.519Z,1.90
2022-08-17T15:47:24.596Z,1.98
2022-08-17T15:49:51.086Z,1.98
2022-08-17T15:52:22.532Z,2.25
2022-08-17T15:54:57.390Z,2.00
2022-08-17T15:57:25.748Z,2.08
2022-08-17T15:59:55.265Z,2.47
2022-08-17T16:03:32.004Z,2.08
2022-08-17T16:05:24.873Z,2.05
2022-08-17T16:07:51.987Z,1.90
2022-08-17T16:10:19.501Z,1.73
2022-08-17T16:12:48.257Z,1.88
2022-08-17T16:15:15.269Z,2.00
2022-08-17T16:17:42.066Z,2.25
2022-08-17T16:20:10.427Z,2.22
2022-08-17T16:22:47.836Z,2.00
2022-08-17T16:25:19.460Z,2.00
2022-08-17T16:27:48.199Z,2.28
2022-08-17T16:30:17.543Z,2.40
2022-08-17T16:32:45.755Z,2.40
2022-08-17T16:35:16.173Z,2.40
2022-08-17T16:37:45.513Z,2.35
2022-08-17T16:40:14.322Z,2.30
2022-08-17T16:42:41.604Z,2.30
2022-08-17T16:45:10.510Z,2.45
2022-08-17T16:47:37.177Z,2.40
2022-08-17T16:50:06.399Z,2.60
2022-08-17T16:52:33.604Z,2.30
2022-08-17T16:55:02.146Z,2.45
2022-08-17T16:57:29.740Z,2.40
2022-08-17T16:59:56.881Z,3.58
2022-08-17T17:02:28.239Z,8.80
2022-08-17T17:05:11.655Z,10.18
2022-08-17T17:07:40.845Z,11.93
2022-08-17T17:10:17.730Z,12.20
2022-08-17T17:13:02.835Z,11.95
2022-08-17T17:15:43.860Z,11.73
2022-08-17T17:18:14.729Z,12.98
2022-08-17T17:20:56.650Z,13.23
2022-08-17T17:23:29.474Z,13.65
2022-08-17T17:25:55.994Z,13.15
2022-08-17T17:28:48.756Z,13.43
2022-08-17T17:31:23.749Z,13.15
2022-08-17T17:33:56.304Z,12.90
2022-08-17T17:36:28.637Z,14.07
2022-08-17T17:39:01.585Z,13.73
2022-08-17T17:41:36.815Z,13.30
2022-08-17T17:44:10.999Z,13.25
2022-08-17T17:46:42.007Z,13.20
2022-08-17T17:49:11.197Z,12.88
2022-08-17T17:52:09.327Z,14.48
2022-08-17T17:54:56.684Z,13.23
2022-08-17T17:57:42.241Z,13.93
2022-08-17T18:00:37.241Z,13.25
2022-08-17T18:03:03.882Z,13.80
2022-08-17T18:05:56.432Z,14.30
2022-08-17T18:08:37.546Z,14.30
2022-08-17T18:11:40.052Z,15.05
2022-08-17T18:14:14.840Z,13.90
2022-08-17T18:16:42.976Z,15.80
2022-08-17T18:19:21.088Z,14.55
2022-08-17T18:21:52.929Z,15.80
2022-08-17T18:24:30.992Z,15.95
2022-08-17T18:27:00.341Z,15.82
2022-08-17T18:29:47.638Z,16.27
2022-08-17T18:32:36.398Z,18.02
2022-08-17T18:35:08.682Z,17.25
2022-08-17T18:37:47.767Z,17.15
2022-08-17T18:40:17.131Z,17.63
2022-08-17T18:43:03.054Z,17.55
2022-08-17T18:45:41.797Z,18.20
2022-08-17T18:48:23.101Z,18.58
2022-08-17T18:50:51.572Z,18.83
2022-08-17T18:53:41.011Z,19.48
2022-08-17T18:56:49.452Z,18.67
2022-08-17T18:59:34.298Z,19.55
2022-08-17T19:02:20.732Z,19.77
2022-08-17T19:04:55.711Z,15.77
2022-08-17T19:07:22.324Z,15.00
2022-08-17T19:09:55.930Z,12.98
2022-08-17T19:12:55.199Z,12.27
2022-08-17T19:15:33.788Z,10.18
2022-08-17T19:18:15.761Z,9.50
2022-08-17T19:20:48.055Z,9.25
2022-08-17T19:23:29.688Z,8.98
2022-08-17T19:26:01.640Z,8.77
2022-08-17T19:28:48.532Z,9.07
2022-08-17T19:31:26.106Z,7.93
2022-08-17T19:33:54.323Z,8.43
2022-08-17T19:36:28.180Z,8.27
2022-08-17T19:39:03.849Z,8.55
2022-08-17T19:41:54.783Z,8.43
2022-08-17T19:45:15.736Z,7.43
2022-08-17T19:48:05.507Z,7.28
2022-08-17T19:50:43.446Z,7.72
2022-08-17T19:54:04.339Z,8.15
2022-08-17T19:56:47.542Z,7.30
2022-08-17T19:59:20.088Z,7.25
2022-08-17T20:02:19.605Z,6.38
2022-08-17T20:04:49.175Z,6.65
2022-08-17T20:07:19.954Z,6.47
2022-08-17T20:10:11.934Z,6.38
2022-08-17T20:12:42.610Z,6.10
2022-08-17T20:15:16.979Z,6.38
2022-08-17T20:17:46.901Z,6.03
2022-08-17T20:20:36.607Z,6.25
2022-08-17T20:23:53.159Z,6.05
2022-08-17T20:26:26.936Z,6.28
2022-08-17T20:29:29.520Z,6.18
2022-08-17T20:32:18.907Z,6.75
2022-08-17T20:34:47.706Z,6.40
2022-08-17T20:37:14.812Z,6.35
2022-08-17T20:39:50.244Z,7.30
2022-08-17T20:42:22.503Z,6.60
2022-08-17T20:44:52.866Z,7.10
2022-08-17T20:47:33.485Z,7.00
2022-08-17T20:50:05.836Z,6.05
2022-08-17T20:52:47.239Z,6.68
2022-08-17T20:55:51.534Z,6.90
2022-08-17T20:58:30.931Z,6.97
2022-08-17T21:00:57.823Z,6.65
2022-08-17T21:03:24.416Z,7.03
2022-08-17T21:06:11.138Z,7.68
2022-08-17T21:08:53.900Z,7.47
2022-08-17T21:11:59.962Z,6.95
2022-08-17T21:14:29.474Z,6.70
2022-08-17T21:17:34.019Z,7.28
2022-08-17T21:20:35.953Z,7.32
2022-08-17T21:23:34.918Z,7.30
2022-08-17T21:26:26.700Z,7.13
2022-08-17T21:29:30.230Z,7.22
2022-08-17T21:32:03.855Z,7.63
2022-08-17T21:34:36.418Z,7.28
2022-08-17T21:37:23.490Z,7.72
2022-08-17T21:39:58.080Z,7.45
2022-08-17T21:42:29.648Z,8.50
2022-08-17T21:45:00.508Z,7.95
2022-08-17T21:47:29.810Z,8.15
2022-08-17T21:50:16.072Z,8.15
2022-08-17T21:52:43.439Z,8.70
2022-08-17T21:55:21.453Z,8.75
2022-08-17T21:57:53.183Z,9.13
2022-08-17T22:00:36.819Z,9.05
2022-08-17T22:03:19.769Z,9.30
2022-08-17T22:05:48.176Z,8.88
2022-08-17T22:08:24.248Z,9.18
2022-08-17T22:10:51.908Z,9.82
2022-08-17T22:13:18.315Z,9.55
2022-08-17T22:15:49.495Z,9.75
2022-08-17T22:18:25.070Z,9.82
2022-08-17T22:20:55.906Z,9.32
2022-08-17T22:23:48.142Z,9.25
2022-08-17T22:26:18.081Z,9.35
2022-08-17T22:28:49.079Z,9.48
2022-08-17T22:31:24.329Z,10.10
2022-08-17T22:34:13.510Z,9.88
2022-08-17T22:36:42.112Z,10.05
2022-08-17T22:39:08.475Z,10.25
2022-08-17T22:41:48.155Z,9.65
2022-08-17T22:44:20.600Z,10.80
2022-08-17T22:47:01.116Z,10.50
2022-08-17T22:49:53.467Z,11.15
2022-08-17T22:52:23.715Z,10.38
2022-08-17T22:55:25.941Z,10.73
2022-08-17T22:58:13.179Z,10.55
2022-08-17T23:00:43.205Z,10.45
2022-08-17T23:03:16.628Z,11.05
2022-08-17T23:06:05.046Z,10.48
2022-08-17T23:08:35.613Z,10.52
2022-08-17T23:11:02.466Z,12.38
2022-08-17T23:13:30.097Z,10.65
2022-08-17T23:15:56.523Z,11.73
2022-08-17T23:18:23.425Z,11.50
2022-08-17T23:20:49.876Z,12.80
2022-08-17T23:23:23.427Z,11.93
2022-08-17T23:25:50.331Z,12.07
2022-08-17T23:28:16.961Z,11.63
2022-08-17T23:30:46.594Z,11.68
2022-08-17T23:33:25.603Z,11.88
2022-08-17T23:35:52.893Z,10.90
2022-08-17T23:38:19.343Z,11.68
2022-08-17T23:40:45.811Z,11.18
2022-08-17T23:43:24.742Z,12.18
2022-08-17T23:45:57.533Z,12.20
2022-08-17T23:48:36.062Z,13.25
2022-08-17T23:51:08.621Z,11.38
2022-08-17T23:53:36.701Z,11.85
2022-08-17T23:56:09.857Z,11.25
2022-08-17T23:58:38.514Z,11.63
